Impacts METAR Board
IDs:

KBMQ - Burnet Muni, TX, US

Updated at: 2300 UTC 18 Oct 2019
Potential Impact None Slight Moderate High
Time 18/11Z 18/12Z 18/13Z 18/14Z 18/15Z 18/16Z 18/17Z 18/18Z 18/19Z 18/20Z 18/21Z 18/22Z 18/23Z
Temp48 49 50 54 59 65 71 73 76 78 79 80 78
Dewpt42 43 44 46 47 45 45 48 51 51 50 50 49
Altim29.91 29.92 29.91 29.92 29.92 29.90 29.88 29.86 29.82 29.78 29.76 29.75 29.75
VIS10 10 10 10 10 10 10 10 10 10 10 10 10
CIG-- -- -- -- -- -- -- -- -- -- -- -- --
CoverCLRCLRCLRCLRCLR--CLRCLRCLRCLRCLRCLRCLR
FltCatVFRVFRVFRVFRVFRVFRVFRVFRVFRVFRVFRVFRVFR
WX--------------------------
WDir609001701901400180190130180140120
WSpd3 3 0 5 6 6 3 5 6 7 7 9 9
WGst-- -- -- -- -- -- -- -- -- -- -- -- --
Raw hourly METARs
KBMQ 181053Z AUTO 06003KT 10SM CLR 09/06 A2991 RMK AO2 SLP120 T00890056 $
KBMQ 181153Z AUTO 09003KT 10SM CLR 09/06 A2992 RMK AO2 SLP122 T00940061 10128 20083 55001 $
KBMQ 181253Z AUTO 00000KT 10SM CLR 10/07 A2991 RMK AO2 SLP122 T01000067
KBMQ 181353Z AUTO 17005KT 10SM CLR 12/08 A2992 RMK AO2 SLP123 T01220078
KBMQ 181453Z AUTO 19006KT 10SM CLR 15/08 A2992 RMK AO2 SLP124 T01500083 53002
KBMQ 181553Z AUTO 14006KT 10SM 18/07 A2990 RMK AO2 SLP116 T01830072 $
KBMQ 181653Z AUTO VRB03KT 10SM CLR 22/07 A2988 RMK AO2 SLP108 T02170072 $
KBMQ 181753Z AUTO 18005KT 10SM CLR 23/09 A2986 RMK AO2 SLP100 T02280089 10233 20089 58021 $
KBMQ 181853Z AUTO 19006KT 10SM CLR 24/11 A2982 RMK AO2 SLP088 T02440106 $
KBMQ 181953Z AUTO 13007KT 100V170 10SM CLR 26/11 A2978 RMK AO2 SLP074 T02560106
KBMQ 182053Z AUTO 18007KT 10SM CLR 26/10 A2976 RMK AO2 SLP066 T02610100 56031
KBMQ 182153Z AUTO 14009KT 10SM CLR 27/10 A2975 RMK AO2 SLP062 T02670100
KBMQ 182253Z AUTO 12009KT 10SM CLR 26/09 A2975 RMK AO2 SLP062 T02560094